sensor_id;sensor_type;location;lat;lon;timestamp;temperature;humidity
3996;DHT22;2012;49.794;9.722;2023-09-30T00:00:10;17.70;99.90
3996;DHT22;2012;49.794;9.722;2023-09-30T00:02:38;17.70;99.90
3996;DHT22;2012;49.794;9.722;2023-09-30T00:05:05;17.60;99.90
3996;DHT22;2012;49.794;9.722;2023-09-30T00:07:33;17.70;99.90
3996;DHT22;2012;49.794;9.722;2023-09-30T00:10:00;17.70;99.90
3996;DHT22;2012;49.794;9.722;2023-09-30T00:12:27;17.70;99.90
3996;DHT22;2012;49.794;9.722;2023-09-30T00:14:54;17.70;99.90
3996;DHT22;2012;49.794;9.722;2023-09-30T00:17:21;17.70;99.90
3996;DHT22;2012;49.794;9.722;2023-09-30T00:19:48;17.70;99.90
3996;DHT22;2012;49.794;9.722;2023-09-30T00:22:15;17.70;99.90
3996;DHT22;2012;49.794;9.722;2023-09-30T00:24:42;17.70;99.90
3996;DHT22;2012;49.794;9.722;2023-09-30T00:27:09;17.70;99.90
3996;DHT22;2012;49.794;9.722;2023-09-30T00:29:36;17.60;99.90
3996;DHT22;2012;49.794;9.722;2023-09-30T00:32:03;17.70;99.90
3996;DHT22;2012;49.794;9.722;2023-09-30T00:34:36;17.50;99.90
3996;DHT22;2012;49.794;9.722;2023-09-30T00:37:04;17.60;99.90
3996;DHT22;2012;49.794;9.722;2023-09-30T00:39:32;17.70;99.90
3996;DHT22;2012;49.794;9.722;2023-09-30T00:41:59;17.60;99.90
3996;DHT22;2012;49.794;9.722;2023-09-30T00:44:27;17.70;99.90
3996;DHT22;2012;49.794;9.722;2023-09-30T00:46:55;17.70;99.90
3996;DHT22;2012;49.794;9.722;2023-09-30T00:49:24;17.70;99.90
3996;DHT22;2012;49.794;9.722;2023-09-30T00:51:51;17.60;99.90
3996;DHT22;2012;49.794;9.722;2023-09-30T00:54:19;17.60;99.90
3996;DHT22;2012;49.794;9.722;2023-09-30T00:56:48;17.40;99.90
3996;DHT22;2012;49.794;9.722;2023-09-30T00:59:17;17.50;99.90
3996;DHT22;2012;49.794;9.722;2023-09-30T01:01:45;17.60;99.90
3996;DHT22;2012;49.794;9.722;2023-09-30T01:04:14;17.50;99.90
3996;DHT22;2012;49.794;9.722;2023-09-30T01:06:42;17.60;99.90
3996;DHT22;2012;49.794;9.722;2023-09-30T01:09:09;17.50;99.90
3996;DHT22;2012;49.794;9.722;2023-09-30T01:11:37;17.50;99.90
3996;DHT22;2012;49.794;9.722;2023-09-30T01:14:04;17.50;99.90
3996;DHT22;2012;49.794;9.722;2023-09-30T01:16:31;17.50;99.90
3996;DHT22;2012;49.794;9.722;2023-09-30T01:19:00;17.50;99.90
3996;DHT22;2012;49.794;9.722;2023-09-30T01:21:27;17.40;99.90
3996;DHT22;2012;49.794;9.722;2023-09-30T01:23:54;17.50;99.90
3996;DHT22;2012;49.794;9.722;2023-09-30T01:26:22;17.50;99.90
3996;DHT22;2012;49.794;9.722;2023-09-30T01:28:49;17.50;99.90
3996;DHT22;2012;49.794;9.722;2023-09-30T01:31:16;17.50;99.90
3996;DHT22;2012;49.794;9.722;2023-09-30T01:33:43;17.40;99.90
3996;DHT22;2012;49.794;9.722;2023-09-30T01:36:11;17.50;99.90
3996;DHT22;2012;49.794;9.722;2023-09-30T01:38:38;17.40;99.90
3996;DHT22;2012;49.794;9.722;2023-09-30T01:41:05;17.40;99.90
3996;DHT22;2012;49.794;9.722;2023-09-30T01:43:34;17.40;99.90
3996;DHT22;2012;49.794;9.722;2023-09-30T01:46:03;17.40;99.90
3996;DHT22;2012;49.794;9.722;2023-09-30T01:48:32;17.40;99.90
3996;DHT22;2012;49.794;9.722;2023-09-30T01:51:00;17.40;99.90
3996;DHT22;2012;49.794;9.722;2023-09-30T01:53:27;17.40;99.90
3996;DHT22;2012;49.794;9.722;2023-09-30T01:55:54;17.30;99.90
3996;DHT22;2012;49.794;9.722;2023-09-30T01:58:21;17.30;99.90
3996;DHT22;2012;49.794;9.722;2023-09-30T02:00:48;17.40;99.90
3996;DHT22;2012;49.794;9.722;2023-09-30T02:03:16;17.40;99.90
3996;DHT22;2012;49.794;9.722;2023-09-30T02:05:44;17.40;99.90
3996;DHT22;2012;49.794;9.722;2023-09-30T02:08:11;17.40;99.90
3996;DHT22;2012;49.794;9.722;2023-09-30T02:10:40;17.30;99.90
3996;DHT22;2012;49.794;9.722;2023-09-30T02:13:08;17.40;99.90
3996;DHT22;2012;49.794;9.722;2023-09-30T02:15:35;17.40;99.90
3996;DHT22;2012;49.794;9.722;2023-09-30T02:18:02;17.40;99.90
3996;DHT22;2012;49.794;9.722;2023-09-30T02:20:30;17.40;99.90
3996;DHT22;2012;49.794;9.722;2023-09-30T02:22:58;17.40;99.90
3996;DHT22;2012;49.794;9.722;2023-09-30T02:25:25;17.40;99.90
3996;DHT22;2012;49.794;9.722;2023-09-30T02:27:52;17.30;99.90
3996;DHT22;2012;49.794;9.722;2023-09-30T02:30:20;17.30;99.90
3996;DHT22;2012;49.794;9.722;2023-09-30T02:32:47;17.30;99.90
3996;DHT22;2012;49.794;9.722;2023-09-30T02:35:14;17.20;99.90
3996;DHT22;2012;49.794;9.722;2023-09-30T02:37:42;17.20;99.90
3996;DHT22;2012;49.794;9.722;2023-09-30T02:40:10;17.20;99.90
3996;DHT22;2012;49.794;9.722;2023-09-30T02:42:38;17.20;99.90
3996;DHT22;2012;49.794;9.722;2023-09-30T02:45:06;17.10;99.90
3996;DHT22;2012;49.794;9.722;2023-09-30T02:47:38;17.10;99.90
3996;DHT22;2012;49.794;9.722;2023-09-30T02:50:07;17.00;99.90
3996;DHT22;2012;49.794;9.722;2023-09-30T02:52:43;17.00;99.90
3996;DHT22;2012;49.794;9.722;2023-09-30T02:55:10;17.00;99.90
3996;DHT22;2012;49.794;9.722;2023-09-30T02:57:38;17.00;99.90
3996;DHT22;2012;49.794;9.722;2023-09-30T03:00:08;17.10;99.90
3996;DHT22;2012;49.794;9.722;2023-09-30T03:02:54;17.10;99.90
3996;DHT22;2012;49.794;9.722;2023-09-30T03:05:22;17.10;99.90
3996;DHT22;2012;49.794;9.722;2023-09-30T03:07:53;17.00;99.90
3996;DHT22;2012;49.794;9.722;2023-09-30T03:10:22;17.10;99.90
3996;DHT22;2012;49.794;9.722;2023-09-30T03:12:53;17.10;99.90
3996;DHT22;2012;49.794;9.722;2023-09-30T03:15:21;17.10;99.90
3996;DHT22;2012;49.794;9.722;2023-09-30T03:17:49;17.00;99.90
3996;DHT22;2012;49.794;9.722;2023-09-30T03:20:19;17.00;99.90
3996;DHT22;2012;49.794;9.722;2023-09-30T03:22:47;17.00;99.90
3996;DHT22;2012;49.794;9.722;2023-09-30T03:25:18;17.00;99.90
3996;DHT22;2012;49.794;9.722;2023-09-30T03:27:46;17.00;99.90
3996;DHT22;2012;49.794;9.722;2023-09-30T03:30:16;17.00;99.90
3996;DHT22;2012;49.794;9.722;2023-09-30T03:32:44;16.90;99.90
3996;DHT22;2012;49.794;9.722;2023-09-30T03:35:11;16.90;99.90
3996;DHT22;2012;49.794;9.722;2023-09-30T03:37:45;16.80;99.90
3996;DHT22;2012;49.794;9.722;2023-09-30T03:40:13;16.80;99.90
3996;DHT22;2012;49.794;9.722;2023-09-30T03:42:48;16.90;99.90
3996;DHT22;2012;49.794;9.722;2023-09-30T03:45:16;16.90;99.90
3996;DHT22;2012;49.794;9.722;2023-09-30T03:47:44;16.90;99.90
3996;DHT22;2012;49.794;9.722;2023-09-30T03:50:11;16.90;99.90
3996;DHT22;2012;49.794;9.722;2023-09-30T03:52:43;17.00;99.90
3996;DHT22;2012;49.794;9.722;2023-09-30T03:55:14;16.90;99.90
3996;DHT22;2012;49.794;9.722;2023-09-30T03:57:48;16.90;99.90
3996;DHT22;2012;49.794;9.722;2023-09-30T04:00:16;16.80;99.90
3996;DHT22;2012;49.794;9.722;2023-09-30T04:02:48;16.80;99.90
3996;DHT22;2012;49.794;9.722;2023-09-30T04:05:25;16.80;99.90
3996;DHT22;2012;49.794;9.722;2023-09-30T04:07:58;16.70;99.90
3996;DHT22;2012;49.794;9.722;2023-09-30T04:10:25;16.60;99.90
3996;DHT22;2012;49.794;9.722;2023-09-30T04:12:52;16.60;99.90
3996;DHT22;2012;49.794;9.722;2023-09-30T04:15:19;16.60;99.90
3996;DHT22;2012;49.794;9.722;2023-09-30T04:17:50;16.50;99.90
3996;DHT22;2012;49.794;9.722;2023-09-30T04:20:18;16.40;99.90
3996;DHT22;2012;49.794;9.722;2023-09-30T04:22:50;16.50;99.90
3996;DHT22;2012;49.794;9.722;2023-09-30T04:25:18;16.50;99.90
3996;DHT22;2012;49.794;9.722;2023-09-30T04:27:46;16.50;99.90
3996;DHT22;2012;49.794;9.722;2023-09-30T04:30:16;16.60;99.90
3996;DHT22;2012;49.794;9.722;2023-09-30T04:32:44;16.50;99.90
3996;DHT22;2012;49.794;9.722;2023-09-30T04:35:11;16.50;99.90
3996;DHT22;2012;49.794;9.722;2023-09-30T04:37:38;16.50;99.90
3996;DHT22;2012;49.794;9.722;2023-09-30T04:40:07;16.50;99.90
3996;DHT22;2012;49.794;9.722;2023-09-30T04:42:42;16.40;99.90
3996;DHT22;2012;49.794;9.722;2023-09-30T04:45:11;16.40;99.90
3996;DHT22;2012;49.794;9.722;2023-09-30T04:47:39;16.40;99.90
3996;DHT22;2012;49.794;9.722;2023-09-30T04:50:07;16.50;99.90
3996;DHT22;2012;49.794;9.722;2023-09-30T04:52:35;16.50;99.90
3996;DHT22;2012;49.794;9.722;2023-09-30T04:55:02;16.50;99.90
3996;DHT22;2012;49.794;9.722;2023-09-30T04:57:31;16.50;99.90
3996;DHT22;2012;49.794;9.722;2023-09-30T05:00:01;16.50;99.90
3996;DHT22;2012;49.794;9.722;2023-09-30T05:02:28;16.40;99.90
3996;DHT22;2012;49.794;9.722;2023-09-30T05:04:55;16.50;99.90
3996;DHT22;2012;49.794;9.722;2023-09-30T05:07:21;16.60;99.90
3996;DHT22;2012;49.794;9.722;2023-09-30T05:09:48;16.40;99.90
3996;DHT22;2012;49.794;9.722;2023-09-30T05:12:16;16.40;99.90
3996;DHT22;2012;49.794;9.722;2023-09-30T05:14:43;16.50;99.90
3996;DHT22;2012;49.794;9.722;2023-09-30T05:17:10;16.50;99.90
3996;DHT22;2012;49.794;9.722;2023-09-30T05:19:37;16.40;99.90
3996;DHT22;2012;49.794;9.722;2023-09-30T05:22:04;16.40;99.90
3996;DHT22;2012;49.794;9.722;2023-09-30T05:24:31;16.40;99.90
3996;DHT22;2012;49.794;9.722;2023-09-30T05:26:58;16.40;99.90
3996;DHT22;2012;49.794;9.722;2023-09-30T05:29:25;16.40;99.90
3996;DHT22;2012;49.794;9.722;2023-09-30T05:31:52;16.30;99.90
3996;DHT22;2012;49.794;9.722;2023-09-30T05:34:20;16.30;99.90
3996;DHT22;2012;49.794;9.722;2023-09-30T05:36:47;16.30;99.90
3996;DHT22;2012;49.794;9.722;2023-09-30T05:39:16;16.20;99.90
3996;DHT22;2012;49.794;9.722;2023-09-30T05:41:46;16.40;99.90
3996;DHT22;2012;49.794;9.722;2023-09-30T05:44:13;16.30;99.90
3996;DHT22;2012;49.794;9.722;2023-09-30T05:46:44;16.30;99.90
3996;DHT22;2012;49.794;9.722;2023-09-30T05:49:12;16.30;99.90
3996;DHT22;2012;49.794;9.722;2023-09-30T05:51:41;16.20;99.90
3996;DHT22;2012;49.794;9.722;2023-09-30T05:54:08;16.20;99.90
3996;DHT22;2012;49.794;9.722;2023-09-30T05:56:36;16.10;99.90
3996;DHT22;2012;49.794;9.722;2023-09-30T05:59:04;16.10;99.90
3996;DHT22;2012;49.794;9.722;2023-09-30T06:01:32;16.20;99.90
3996;DHT22;2012;49.794;9.722;2023-09-30T06:04:00;16.20;99.90
3996;DHT22;2012;49.794;9.722;2023-09-30T06:06:27;16.20;99.90
3996;DHT22;2012;49.794;9.722;2023-09-30T06:08:57;16.30;99.90
3996;DHT22;2012;49.794;9.722;2023-09-30T06:11:28;16.30;99.90
3996;DHT22;2012;49.794;9.722;2023-09-30T06:13:55;16.30;99.90
3996;DHT22;2012;49.794;9.722;2023-09-30T06:16:25;16.30;99.90
3996;DHT22;2012;49.794;9.722;2023-09-30T06:18:54;16.20;99.90
3996;DHT22;2012;49.794;9.722;2023-09-30T06:21:21;16.20;99.90
3996;DHT22;2012;49.794;9.722;2023-09-30T06:23:48;16.20;99.90
3996;DHT22;2012;49.794;9.722;2023-09-30T06:26:15;16.20;99.90
3996;DHT22;2012;49.794;9.722;2023-09-30T06:28:43;16.20;99.90
3996;DHT22;2012;49.794;9.722;2023-09-30T06:31:11;16.20;99.90
3996;DHT22;2012;49.794;9.722;2023-09-30T06:33:39;16.30;99.90
3996;DHT22;2012;49.794;9.722;2023-09-30T06:36:13;16.40;99.90
3996;DHT22;2012;49.794;9.722;2023-09-30T06:38:44;16.40;99.90
3996;DHT22;2012;49.794;9.722;2023-09-30T06:41:18;16.50;99.90
3996;DHT22;2012;49.794;9.722;2023-09-30T06:43:45;16.50;99.90
3996;DHT22;2012;49.794;9.722;2023-09-30T06:46:13;16.50;99.90
3996;DHT22;2012;49.794;9.722;2023-09-30T06:48:40;16.50;99.90
3996;DHT22;2012;49.794;9.722;2023-09-30T06:51:07;16.60;99.90
3996;DHT22;2012;49.794;9.722;2023-09-30T06:53:34;16.60;99.90
3996;DHT22;2012;49.794;9.722;2023-09-30T06:56:04;16.60;99.90
3996;DHT22;2012;49.794;9.722;2023-09-30T06:58:32;16.60;99.90
3996;DHT22;2012;49.794;9.722;2023-09-30T07:00:59;16.60;99.90
3996;DHT22;2012;49.794;9.722;2023-09-30T07:03:26;16.60;99.90
3996;DHT22;2012;49.794;9.722;2023-09-30T07:05:53;16.50;99.90
3996;DHT22;2012;49.794;9.722;2023-09-30T07:08:21;16.60;99.90
3996;DHT22;2012;49.794;9.722;2023-09-30T07:10:48;16.60;99.90
3996;DHT22;2012;49.794;9.722;2023-09-30T07:13:19;16.60;99.90
3996;DHT22;2012;49.794;9.722;2023-09-30T07:15:47;16.50;99.90
3996;DHT22;2012;49.794;9.722;2023-09-30T07:18:14;16.60;99.90
3996;DHT22;2012;49.794;9.722;2023-09-30T07:20:41;16.60;99.90
3996;DHT22;2012;49.794;9.722;2023-09-30T07:23:08;16.60;99.90
3996;DHT22;2012;49.794;9.722;2023-09-30T07:25:46;16.70;99.90
3996;DHT22;2012;49.794;9.722;2023-09-30T07:28:14;16.80;99.90
3996;DHT22;2012;49.794;9.722;2023-09-30T07:30:41;16.70;99.90
3996;DHT22;2012;49.794;9.722;2023-09-30T07:33:08;16.80;99.90
3996;DHT22;2012;49.794;9.722;2023-09-30T07:35:37;16.90;99.90
3996;DHT22;2012;49.794;9.722;2023-09-30T07:38:06;16.80;99.90
3996;DHT22;2012;49.794;9.722;2023-09-30T07:40:32;16.90;99.90
3996;DHT22;2012;49.794;9.722;2023-09-30T07:42:59;16.90;99.90
3996;DHT22;2012;49.794;9.722;2023-09-30T07:45:26;16.90;99.90
3996;DHT22;2012;49.794;9.722;2023-09-30T07:47:55;16.80;99.90
3996;DHT22;2012;49.794;9.722;2023-09-30T07:50:22;16.80;99.90
3996;DHT22;2012;49.794;9.722;2023-09-30T07:52:48;16.90;99.90
3996;DHT22;2012;49.794;9.722;2023-09-30T07:55:15;17.00;99.90
3996;DHT22;2012;49.794;9.722;2023-09-30T07:57:43;17.00;99.90
3996;DHT22;2012;49.794;9.722;2023-09-30T08:00:10;17.10;99.90
3996;DHT22;2012;49.794;9.722;2023-09-30T08:02:43;17.20;99.90
3996;DHT22;2012;49.794;9.722;2023-09-30T08:05:10;17.30;99.90
3996;DHT22;2012;49.794;9.722;2023-09-30T08:07:37;17.30;99.90
3996;DHT22;2012;49.794;9.722;2023-09-30T08:10:05;17.40;99.90
3996;DHT22;2012;49.794;9.722;2023-09-30T08:12:33;17.30;99.90
3996;DHT22;2012;49.794;9.722;2023-09-30T08:15:00;17.40;99.90
3996;DHT22;2012;49.794;9.722;2023-09-30T08:17:30;17.50;99.90
3996;DHT22;2012;49.794;9.722;2023-09-30T08:19:57;17.50;99.90
3996;DHT22;2012;49.794;9.722;2023-09-30T08:22:24;17.40;99.90
3996;DHT22;2012;49.794;9.722;2023-09-30T08:24:54;17.30;99.90
3996;DHT22;2012;49.794;9.722;2023-09-30T08:27:22;17.30;99.90
3996;DHT22;2012;49.794;9.722;2023-09-30T08:29:51;17.50;99.90
3996;DHT22;2012;49.794;9.722;2023-09-30T08:32:18;17.70;99.90
3996;DHT22;2012;49.794;9.722;2023-09-30T08:34:45;17.80;99.90
3996;DHT22;2012;49.794;9.722;2023-09-30T08:37:11;17.80;99.90
3996;DHT22;2012;49.794;9.722;2023-09-30T08:39:39;17.80;99.90
3996;DHT22;2012;49.794;9.722;2023-09-30T08:42:10;18.00;99.90
3996;DHT22;2012;49.794;9.722;2023-09-30T08:44:38;17.90;99.90
3996;DHT22;2012;49.794;9.722;2023-09-30T08:47:08;18.10;99.90
3996;DHT22;2012;49.794;9.722;2023-09-30T08:49:37;18.00;99.90
3996;DHT22;2012;49.794;9.722;2023-09-30T08:52:10;18.00;99.90
3996;DHT22;2012;49.794;9.722;2023-09-30T08:54:40;17.90;99.90
3996;DHT22;2012;49.794;9.722;2023-09-30T08:57:09;18.00;99.90
3996;DHT22;2012;49.794;9.722;2023-09-30T08:59:37;18.10;99.90
3996;DHT22;2012;49.794;9.722;2023-09-30T09:02:11;18.30;99.90
3996;DHT22;2012;49.794;9.722;2023-09-30T09:04:37;18.30;99.90
3996;DHT22;2012;49.794;9.722;2023-09-30T09:07:05;18.50;99.90
3996;DHT22;2012;49.794;9.722;2023-09-30T09:09:32;18.50;99.90
3996;DHT22;2012;49.794;9.722;2023-09-30T09:11:59;18.40;99.90
3996;DHT22;2012;49.794;9.722;2023-09-30T09:14:44;18.40;99.90
3996;DHT22;2012;49.794;9.722;2023-09-30T09:17:13;18.60;99.90
3996;DHT22;2012;49.794;9.722;2023-09-30T09:19:40;18.60;99.90
3996;DHT22;2012;49.794;9.722;2023-09-30T09:22:07;18.90;99.90
3996;DHT22;2012;49.794;9.722;2023-09-30T09:24:36;18.90;99.90
3996;DHT22;2012;49.794;9.722;2023-09-30T09:27:12;18.90;99.90
3996;DHT22;2012;49.794;9.722;2023-09-30T09:29:39;18.60;99.90
3996;DHT22;2012;49.794;9.722;2023-09-30T09:34:41;18.50;99.90
3996;DHT22;2012;49.794;9.722;2023-09-30T09:37:20;18.80;99.90
3996;DHT22;2012;49.794;9.722;2023-09-30T09:39:54;19.10;99.90
3996;DHT22;2012;49.794;9.722;2023-09-30T09:42:30;19.20;99.90
3996;DHT22;2012;49.794;9.722;2023-09-30T09:45:05;19.20;99.90
3996;DHT22;2012;49.794;9.722;2023-09-30T09:47:33;19.20;99.90
3996;DHT22;2012;49.794;9.722;2023-09-30T09:50:03;19.10;99.90
3996;DHT22;2012;49.794;9.722;2023-09-30T09:52:34;19.00;99.90
3996;DHT22;2012;49.794;9.722;2023-09-30T09:55:02;18.90;99.90
3996;DHT22;2012;49.794;9.722;2023-09-30T09:57:31;18.90;99.90
3996;DHT22;2012;49.794;9.722;2023-09-30T09:59:58;19.00;99.90
3996;DHT22;2012;49.794;9.722;2023-09-30T10:02:26;19.00;99.90
3996;DHT22;2012;49.794;9.722;2023-09-30T10:04:55;19.00;99.90
3996;DHT22;2012;49.794;9.722;2023-09-30T10:07:30;19.00;99.90
3996;DHT22;2012;49.794;9.722;2023-09-30T10:10:01;19.00;99.90
3996;DHT22;2012;49.794;9.722;2023-09-30T10:12:39;19.10;99.90
3996;DHT22;2012;49.794;9.722;2023-09-30T10:18:10;19.10;99.90
3996;DHT22;2012;49.794;9.722;2023-09-30T10:20:43;19.00;99.90
3996;DHT22;2012;49.794;9.722;2023-09-30T10:25:49;18.80;99.90
3996;DHT22;2012;49.794;9.722;2023-09-30T10:28:44;18.60;99.90
3996;DHT22;2012;49.794;9.722;2023-09-30T10:36:38;18.90;99.90
3996;DHT22;2012;49.794;9.722;2023-09-30T10:39:52;18.60;99.90
3996;DHT22;2012;49.794;9.722;2023-09-30T10:42:48;18.70;99.90
3996;DHT22;2012;49.794;9.722;2023-09-30T10:50:57;18.90;99.90
3996;DHT22;2012;49.794;9.722;2023-09-30T10:53:33;18.90;99.90
3996;DHT22;2012;49.794;9.722;2023-09-30T10:56:00;18.90;99.90
3996;DHT22;2012;49.794;9.722;2023-09-30T11:01:11;18.80;99.90
3996;DHT22;2012;49.794;9.722;2023-09-30T11:03:43;18.80;99.90
3996;DHT22;2012;49.794;9.722;2023-09-30T11:06:12;18.70;99.90
3996;DHT22;2012;49.794;9.722;2023-09-30T11:08:46;18.80;99.90
3996;DHT22;2012;49.794;9.722;2023-09-30T11:11:17;19.00;99.90
3996;DHT22;2012;49.794;9.722;2023-09-30T11:13:44;19.10;99.90
3996;DHT22;2012;49.794;9.722;2023-09-30T11:16:11;19.10;99.90
3996;DHT22;2012;49.794;9.722;2023-09-30T11:18:39;19.10;99.90
3996;DHT22;2012;49.794;9.722;2023-09-30T11:21:08;19.30;99.90
3996;DHT22;2012;49.794;9.722;2023-09-30T11:23:37;19.20;99.90
3996;DHT22;2012;49.794;9.722;2023-09-30T11:26:04;19.10;99.90
3996;DHT22;2012;49.794;9.722;2023-09-30T11:28:39;19.00;99.90
3996;DHT22;2012;49.794;9.722;2023-09-30T11:31:12;19.00;99.90
3996;DHT22;2012;49.794;9.722;2023-09-30T11:33:51;19.10;99.90
3996;DHT22;2012;49.794;9.722;2023-09-30T11:36:20;19.10;99.90
3996;DHT22;2012;49.794;9.722;2023-09-30T11:38:50;19.20;99.90
3996;DHT22;2012;49.794;9.722;2023-09-30T11:41:17;19.40;99.90
3996;DHT22;2012;49.794;9.722;2023-09-30T11:44:02;19.40;99.90
3996;DHT22;2012;49.794;9.722;2023-09-30T11:46:56;19.70;99.90
3996;DHT22;2012;49.794;9.722;2023-09-30T11:49:35;20.20;99.90
3996;DHT22;2012;49.794;9.722;2023-09-30T11:52:07;20.50;99.90
3996;DHT22;2012;49.794;9.722;2023-09-30T11:54:43;20.60;99.90
3996;DHT22;2012;49.794;9.722;2023-09-30T11:57:13;20.50;99.90
3996;DHT22;2012;49.794;9.722;2023-09-30T11:59:43;20.40;99.90
3996;DHT22;2012;49.794;9.722;2023-09-30T12:02:15;20.70;99.90
3996;DHT22;2012;49.794;9.722;2023-09-30T12:04:43;21.00;98.80
3996;DHT22;2012;49.794;9.722;2023-09-30T12:07:11;21.30;97.30
3996;DHT22;2012;49.794;9.722;2023-09-30T12:09:38;21.30;95.60
3996;DHT22;2012;49.794;9.722;2023-09-30T12:12:07;21.40;95.00
3996;DHT22;2012;49.794;9.722;2023-09-30T12:14:39;21.50;94.00
3996;DHT22;2012;49.794;9.722;2023-09-30T12:17:06;21.50;93.10
3996;DHT22;2012;49.794;9.722;2023-09-30T12:19:38;21.60;93.20
3996;DHT22;2012;49.794;9.722;2023-09-30T12:22:05;21.80;94.30
3996;DHT22;2012;49.794;9.722;2023-09-30T12:24:33;21.70;93.90
3996;DHT22;2012;49.794;9.722;2023-09-30T12:27:00;21.40;92.40
3996;DHT22;2012;49.794;9.722;2023-09-30T12:29:27;21.60;92.90
3996;DHT22;2012;49.794;9.722;2023-09-30T12:31:54;22.00;93.50
3996;DHT22;2012;49.794;9.722;2023-09-30T12:34:22;22.20;92.50
3996;DHT22;2012;49.794;9.722;2023-09-30T12:36:54;22.30;93.70
3996;DHT22;2012;49.794;9.722;2023-09-30T12:39:24;22.30;93.80
3996;DHT22;2012;49.794;9.722;2023-09-30T12:41:53;22.40;94.70
3996;DHT22;2012;49.794;9.722;2023-09-30T12:44:20;22.40;93.80
3996;DHT22;2012;49.794;9.722;2023-09-30T12:46:47;22.30;92.10
3996;DHT22;2012;49.794;9.722;2023-09-30T12:49:14;22.30;91.50
3996;DHT22;2012;49.794;9.722;2023-09-30T12:51:42;22.60;92.60
3996;DHT22;2012;49.794;9.722;2023-09-30T12:54:09;22.40;89.70
3996;DHT22;2012;49.794;9.722;2023-09-30T12:56:38;22.70;90.10
3996;DHT22;2012;49.794;9.722;2023-09-30T12:59:04;22.90;89.70
3996;DHT22;2012;49.794;9.722;2023-09-30T13:01:31;23.00;87.50
3996;DHT22;2012;49.794;9.722;2023-09-30T13:04:02;22.90;87.20
3996;DHT22;2012;49.794;9.722;2023-09-30T13:06:29;23.00;90.70
3996;DHT22;2012;49.794;9.722;2023-09-30T13:08:59;23.00;91.00
3996;DHT22;2012;49.794;9.722;2023-09-30T13:11:27;23.10;86.30
3996;DHT22;2012;49.794;9.722;2023-09-30T13:13:54;23.10;91.10
3996;DHT22;2012;49.794;9.722;2023-09-30T13:16:22;23.10;90.80
3996;DHT22;2012;49.794;9.722;2023-09-30T13:18:49;23.20;91.90
3996;DHT22;2012;49.794;9.722;2023-09-30T13:21:19;23.20;89.20
3996;DHT22;2012;49.794;9.722;2023-09-30T13:23:46;23.00;87.50
3996;DHT22;2012;49.794;9.722;2023-09-30T13:26:13;23.20;89.10
3996;DHT22;2012;49.794;9.722;2023-09-30T13:28:41;23.20;87.20
3996;DHT22;2012;49.794;9.722;2023-09-30T13:31:08;23.10;86.30
3996;DHT22;2012;49.794;9.722;2023-09-30T13:33:35;23.20;84.80
3996;DHT22;2012;49.794;9.722;2023-09-30T13:36:02;23.10;86.40
3996;DHT22;2012;49.794;9.722;2023-09-30T13:38:29;23.20;88.00
3996;DHT22;2012;49.794;9.722;2023-09-30T13:40:56;23.30;86.50
3996;DHT22;2012;49.794;9.722;2023-09-30T13:43:23;23.30;85.20
3996;DHT22;2012;49.794;9.722;2023-09-30T13:45:50;23.20;85.30
3996;DHT22;2012;49.794;9.722;2023-09-30T13:48:17;22.80;86.70
3996;DHT22;2012;49.794;9.722;2023-09-30T13:50:44;22.30;87.40
3996;DHT22;2012;49.794;9.722;2023-09-30T13:53:11;22.40;87.80
3996;DHT22;2012;49.794;9.722;2023-09-30T13:55:39;22.70;86.90
3996;DHT22;2012;49.794;9.722;2023-09-30T13:58:06;22.90;82.70
3996;DHT22;2012;49.794;9.722;2023-09-30T14:00:33;23.00;88.10
3996;DHT22;2012;49.794;9.722;2023-09-30T14:03:00;23.30;84.60
3996;DHT22;2012;49.794;9.722;2023-09-30T14:05:27;23.30;80.80
3996;DHT22;2012;49.794;9.722;2023-09-30T14:07:54;23.50;82.90
3996;DHT22;2012;49.794;9.722;2023-09-30T14:10:21;23.30;80.40
3996;DHT22;2012;49.794;9.722;2023-09-30T14:12:48;23.50;81.30
3996;DHT22;2012;49.794;9.722;2023-09-30T14:15:15;23.40;81.30
3996;DHT22;2012;49.794;9.722;2023-09-30T14:17:42;23.70;80.00
3996;DHT22;2012;49.794;9.722;2023-09-30T14:20:09;23.70;77.90
3996;DHT22;2012;49.794;9.722;2023-09-30T14:22:36;23.60;76.80
3996;DHT22;2012;49.794;9.722;2023-09-30T14:25:03;23.40;78.30
3996;DHT22;2012;49.794;9.722;2023-09-30T14:27:30;23.30;78.50
3996;DHT22;2012;49.794;9.722;2023-09-30T14:29:57;23.30;80.90
3996;DHT22;2012;49.794;9.722;2023-09-30T14:32:24;23.20;79.00
3996;DHT22;2012;49.794;9.722;2023-09-30T14:34:51;23.30;81.20
3996;DHT22;2012;49.794;9.722;2023-09-30T14:37:18;23.30;81.00
3996;DHT22;2012;49.794;9.722;2023-09-30T14:39:45;23.40;79.60
3996;DHT22;2012;49.794;9.722;2023-09-30T14:42:12;23.00;79.30
3996;DHT22;2012;49.794;9.722;2023-09-30T14:44:39;23.00;81.80
3996;DHT22;2012;49.794;9.722;2023-09-30T14:47:05;23.00;81.40
3996;DHT22;2012;49.794;9.722;2023-09-30T14:49:32;22.90;80.00
3996;DHT22;2012;49.794;9.722;2023-09-30T14:51:59;22.90;81.50
3996;DHT22;2012;49.794;9.722;2023-09-30T14:54:26;23.00;82.00
3996;DHT22;2012;49.794;9.722;2023-09-30T14:56:53;22.80;83.70
3996;DHT22;2012;49.794;9.722;2023-09-30T14:59:20;22.80;82.90
3996;DHT22;2012;49.794;9.722;2023-09-30T15:01:47;22.90;82.80
3996;DHT22;2012;49.794;9.722;2023-09-30T15:04:16;22.80;81.40
3996;DHT22;2012;49.794;9.722;2023-09-30T15:06:43;22.70;83.20
3996;DHT22;2012;49.794;9.722;2023-09-30T15:09:10;22.60;80.00
3996;DHT22;2012;49.794;9.722;2023-09-30T15:11:38;22.50;82.50
3996;DHT22;2012;49.794;9.722;2023-09-30T15:14:06;22.40;82.20
3996;DHT22;2012;49.794;9.722;2023-09-30T15:16:32;22.10;85.80
3996;DHT22;2012;49.794;9.722;2023-09-30T15:19:00;22.20;84.90
3996;DHT22;2012;49.794;9.722;2023-09-30T15:21:27;22.10;85.10
3996;DHT22;2012;49.794;9.722;2023-09-30T15:23:54;22.00;83.40
3996;DHT22;2012;49.794;9.722;2023-09-30T15:26:21;22.00;85.90
3996;DHT22;2012;49.794;9.722;2023-09-30T15:28:48;21.80;85.70
3996;DHT22;2012;49.794;9.722;2023-09-30T15:31:15;21.60;86.20
3996;DHT22;2012;49.794;9.722;2023-09-30T15:33:42;21.50;85.50
3996;DHT22;2012;49.794;9.722;2023-09-30T15:36:14;21.40;87.20
3996;DHT22;2012;49.794;9.722;2023-09-30T15:38:43;21.30;88.30
3996;DHT22;2012;49.794;9.722;2023-09-30T15:41:13;21.20;89.50
3996;DHT22;2012;49.794;9.722;2023-09-30T15:43:40;21.10;88.00
3996;DHT22;2012;49.794;9.722;2023-09-30T15:46:08;20.90;90.00
3996;DHT22;2012;49.794;9.722;2023-09-30T15:48:35;20.80;91.40
3996;DHT22;2012;49.794;9.722;2023-09-30T15:51:02;20.70;92.30
3996;DHT22;2012;49.794;9.722;2023-09-30T15:53:29;20.70;92.50
3996;DHT22;2012;49.794;9.722;2023-09-30T15:56:00;20.50;93.90
3996;DHT22;2012;49.794;9.722;2023-09-30T15:58:28;20.40;94.30
3996;DHT22;2012;49.794;9.722;2023-09-30T16:00:55;20.20;95.00
3996;DHT22;2012;49.794;9.722;2023-09-30T16:03:23;20.10;96.20
3996;DHT22;2012;49.794;9.722;2023-09-30T16:05:50;19.90;97.70
3996;DHT22;2012;49.794;9.722;2023-09-30T16:08:18;19.70;98.60
3996;DHT22;2012;49.794;9.722;2023-09-30T16:10:46;19.70;99.50
3996;DHT22;2012;49.794;9.722;2023-09-30T16:13:13;19.50;99.90
3996;DHT22;2012;49.794;9.722;2023-09-30T16:15:41;19.40;99.90
3996;DHT22;2012;49.794;9.722;2023-09-30T16:18:09;19.30;99.90
3996;DHT22;2012;49.794;9.722;2023-09-30T16:20:36;19.20;99.90
3996;DHT22;2012;49.794;9.722;2023-09-30T16:23:03;19.10;99.90
3996;DHT22;2012;49.794;9.722;2023-09-30T16:25:31;19.00;99.90
3996;DHT22;2012;49.794;9.722;2023-09-30T16:27:58;18.80;99.90
3996;DHT22;2012;49.794;9.722;2023-09-30T16:30:27;18.70;99.90
3996;DHT22;2012;49.794;9.722;2023-09-30T16:32:56;18.60;99.90